createdAt,value
2023-04-09T00:01:20.394Z,7.77
2023-04-09T00:03:48.531Z,7.77
2023-04-09T00:06:16.640Z,7.77
2023-04-09T00:08:44.661Z,7.76
2023-04-09T00:11:12.647Z,7.76
2023-04-09T00:13:41.073Z,7.74
2023-04-09T00:16:09.354Z,7.74
2023-04-09T00:18:37.774Z,7.74
2023-04-09T00:21:07.214Z,7.74
2023-04-09T00:23:35.680Z,7.74
2023-04-09T00:26:03.729Z,7.73
2023-04-09T00:28:31.650Z,7.73
2023-04-09T00:30:59.746Z,7.73
2023-04-09T00:33:28.347Z,7.72
2023-04-09T00:35:56.951Z,7.71
2023-04-09T00:38:25.556Z,7.70
2023-04-09T00:40:53.524Z,7.70
2023-04-09T00:43:21.697Z,7.70
2023-04-09T00:45:49.673Z,7.69
2023-04-09T00:48:17.975Z,7.68
2023-04-09T00:50:45.962Z,7.67
2023-04-09T00:53:14.959Z,7.67
2023-04-09T00:55:43.185Z,7.66
2023-04-09T00:58:11.304Z,7.66
2023-04-09T01:00:39.306Z,7.64
2023-04-09T01:03:08.028Z,7.62
2023-04-09T01:06:01.993Z,7.61
2023-04-09T01:08:49.349Z,7.62
2023-04-09T01:11:46.430Z,7.61
2023-04-09T01:14:20.642Z,7.62
2023-04-09T01:16:56.027Z,7.62
2023-04-09T01:19:48.917Z,7.60
2023-04-09T01:22:25.108Z,7.60
2023-04-09T01:25:09.777Z,7.60
2023-04-09T01:27:56.528Z,7.60
2023-04-09T01:30:26.841Z,7.60
2023-04-09T01:32:57.295Z,7.61
2023-04-09T01:35:27.295Z,7.61
2023-04-09T01:37:56.799Z,7.61
2023-04-09T01:40:25.141Z,7.61
2023-04-09T01:42:55.031Z,7.61
2023-04-09T01:45:23.923Z,7.61
2023-04-09T01:47:53.907Z,7.61
2023-04-09T01:50:22.584Z,7.60
2023-04-09T01:52:51.080Z,7.60
2023-04-09T01:55:19.588Z,7.59
2023-04-09T01:57:47.458Z,7.58
2023-04-09T02:00:16.512Z,7.57
2023-04-09T02:03:05.837Z,7.57
2023-04-09T02:05:38.876Z,7.58
2023-04-09T02:08:12.066Z,7.58
2023-04-09T02:10:40.806Z,7.59
2023-04-09T02:13:14.191Z,7.59
2023-04-09T02:15:43.889Z,7.59
2023-04-09T02:18:27.327Z,7.59
2023-04-09T02:20:57.322Z,7.59
2023-04-09T02:23:29.670Z,7.59
2023-04-09T02:25:57.659Z,7.58
2023-04-09T02:28:25.640Z,7.58
2023-04-09T02:30:53.686Z,7.57
2023-04-09T02:33:22.129Z,7.55
2023-04-09T02:35:50.957Z,7.51
2023-04-09T02:38:20.757Z,7.49
2023-04-09T02:40:48.784Z,7.46
2023-04-09T02:43:17.101Z,7.44
2023-04-09T02:45:45.059Z,7.42
2023-04-09T02:48:12.960Z,7.41
2023-04-09T02:50:41.547Z,7.40
2023-04-09T02:53:09.484Z,7.39
2023-04-09T02:55:37.602Z,7.39
2023-04-09T02:58:05.679Z,7.39
2023-04-09T03:00:34.192Z,7.39
2023-04-09T03:03:02.361Z,7.39
2023-04-09T03:05:30.598Z,7.37
2023-04-09T03:07:58.528Z,7.36
2023-04-09T03:10:26.543Z,7.36
2023-04-09T03:12:54.528Z,7.36
2023-04-09T03:15:22.801Z,7.36
2023-04-09T03:17:50.745Z,7.36
2023-04-09T03:20:18.739Z,7.36
2023-04-09T03:22:46.659Z,7.36
2023-04-09T03:25:30.470Z,7.33
2023-04-09T03:27:58.891Z,7.31
2023-04-09T03:30:34.090Z,7.29
2023-04-09T03:33:03.604Z,7.28
2023-04-09T03:35:32.940Z,7.26
2023-04-09T03:38:01.452Z,7.25
2023-04-09T03:40:29.688Z,7.23
2023-04-09T03:42:57.821Z,7.22
2023-04-09T03:45:26.144Z,7.20
2023-04-09T03:48:02.358Z,7.19
2023-04-09T03:50:30.552Z,7.18
2023-04-09T03:52:58.620Z,7.18
2023-04-09T03:55:27.173Z,7.19
2023-04-09T03:57:55.413Z,7.18
2023-04-09T04:05:17.144Z,7.13
2023-04-09T04:07:47.614Z,7.12
2023-04-09T04:10:19.818Z,7.11
2023-04-09T04:12:48.704Z,7.12
2023-04-09T04:15:27.033Z,7.13
2023-04-09T04:17:56.435Z,7.16
2023-04-09T04:20:36.429Z,7.21
2023-04-09T04:23:08.600Z,7.26
2023-04-09T04:25:42.765Z,7.32
2023-04-09T04:28:13.091Z,7.38
2023-04-09T04:34:58.108Z,7.45
2023-04-09T04:37:26.465Z,7.44
2023-04-09T04:39:55.894Z,7.42
2023-04-09T04:42:22.856Z,7.39
2023-04-09T04:44:49.599Z,7.34
2023-04-09T04:47:36.334Z,7.30
2023-04-09T04:50:04.072Z,7.27
2023-04-09T04:52:33.461Z,7.27
2023-04-09T04:55:01.252Z,7.27
2023-04-09T04:57:27.979Z,7.29
2023-04-09T04:59:55.115Z,7.32
2023-04-09T05:02:21.836Z,7.36
2023-04-09T05:04:55.655Z,7.41
2023-04-09T05:07:27.781Z,7.48
2023-04-09T05:09:54.544Z,7.55
2023-04-09T05:12:21.055Z,7.61
2023-04-09T05:14:50.415Z,7.66
2023-04-09T05:17:17.098Z,7.71
2023-04-09T05:19:51.153Z,7.76
2023-04-09T05:22:18.222Z,7.83
2023-04-09T05:24:45.504Z,7.89
2023-04-09T05:27:12.712Z,7.94
2023-04-09T05:29:52.722Z,8.01
2023-04-09T05:32:19.744Z,8.08
2023-04-09T05:34:46.671Z,8.14
2023-04-09T05:37:14.241Z,8.20
2023-04-09T05:39:41.832Z,8.27
2023-04-09T05:42:08.565Z,8.33
2023-04-09T05:44:40.461Z,8.38
2023-04-09T05:47:17.385Z,8.39
2023-04-09T05:50:16.676Z,8.42
2023-04-09T05:52:43.421Z,8.48
2023-04-09T05:55:11.739Z,8.52
2023-04-09T05:57:44.727Z,8.55
2023-04-09T06:00:12.766Z,8.58
2023-04-09T06:02:46.276Z,8.63
2023-04-09T06:05:13.459Z,8.67
2023-04-09T06:07:40.657Z,8.71
2023-04-09T06:10:07.923Z,8.76
2023-04-09T06:12:35.599Z,8.83
2023-04-09T06:15:06.132Z,8.92
2023-04-09T06:17:32.911Z,9.03
2023-04-09T06:19:59.503Z,9.12
2023-04-09T06:22:26.147Z,9.17
2023-04-09T06:24:52.589Z,9.23
2023-04-09T06:27:21.560Z,9.25
2023-04-09T06:29:48.296Z,9.31
2023-04-09T06:32:15.025Z,9.36
2023-04-09T06:34:41.609Z,9.44
2023-04-09T06:37:08.154Z,9.56
2023-04-09T06:39:35.151Z,9.71
2023-04-09T06:42:03.271Z,9.83
2023-04-09T06:44:38.539Z,9.95
2023-04-09T06:47:05.515Z,10.04
2023-04-09T06:49:32.333Z,10.16
2023-04-09T06:51:58.947Z,10.32
2023-04-09T06:54:25.752Z,10.49
2023-04-09T06:56:52.379Z,10.66
2023-04-09T06:59:19.455Z,10.85
2023-04-09T07:01:47.119Z,11.06
2023-04-09T07:04:14.064Z,11.26
2023-04-09T07:06:40.976Z,11.49
2023-04-09T07:09:07.671Z,11.67
2023-04-09T07:11:34.341Z,11.80
2023-04-09T07:14:01.108Z,11.93
2023-04-09T07:16:28.097Z,12.16
2023-04-09T07:18:55.013Z,12.31
2023-04-09T07:21:21.814Z,12.37
2023-04-09T07:23:48.521Z,12.49
2023-04-09T07:26:15.087Z,12.53
2023-04-09T07:28:41.657Z,12.53
2023-04-09T07:31:08.833Z,12.40
2023-04-09T07:33:35.740Z,12.35
2023-04-09T07:36:02.552Z,12.43
2023-04-09T07:38:29.744Z,12.52
2023-04-09T07:40:56.583Z,12.64
2023-04-09T07:43:23.164Z,12.79
2023-04-09T07:45:51.073Z,12.84
2023-04-09T07:48:17.631Z,12.82
2023-04-09T07:50:47.668Z,12.78
2023-04-09T07:53:15.898Z,12.81
2023-04-09T07:55:42.608Z,12.97
2023-04-09T07:58:09.542Z,13.16
2023-04-09T08:00:36.214Z,13.33
2023-04-09T08:03:03.391Z,13.38
2023-04-09T08:05:30.941Z,13.44
2023-04-09T08:07:57.687Z,13.53
2023-04-09T08:10:24.762Z,13.61
2023-04-09T08:12:51.623Z,13.62
2023-04-09T08:15:18.456Z,13.66
2023-04-09T08:17:45.213Z,13.83
2023-04-09T08:20:12.138Z,13.87
2023-04-09T08:22:40.422Z,13.89
2023-04-09T08:25:07.436Z,13.96
2023-04-09T08:27:35.433Z,14.03
2023-04-09T08:30:02.981Z,14.03
2023-04-09T08:32:29.480Z,14.11
2023-04-09T08:34:56.161Z,14.19
2023-04-09T08:37:22.809Z,14.15
2023-04-09T08:39:49.316Z,14.22
2023-04-09T08:42:16.464Z,14.40
2023-04-09T08:44:43.248Z,14.52
2023-04-09T08:47:13.899Z,14.64
2023-04-09T08:49:41.334Z,14.63
2023-04-09T08:52:08.150Z,14.60
2023-04-09T08:54:34.991Z,14.60
2023-04-09T08:57:05.323Z,14.61
2023-04-09T08:59:36.274Z,14.80
2023-04-09T09:02:08.094Z,14.93
2023-04-09T09:04:48.971Z,14.97
2023-04-09T09:07:16.424Z,15.09
2023-04-09T09:10:01.687Z,15.21
2023-04-09T09:12:31.464Z,15.26
2023-04-09T09:14:58.382Z,15.32
2023-04-09T09:17:25.995Z,15.44
2023-04-09T09:19:52.771Z,15.79
2023-04-09T09:22:19.240Z,16.16
2023-04-09T09:24:50.665Z,16.32
2023-04-09T09:27:36.137Z,16.32
2023-04-09T09:30:05.238Z,16.27
2023-04-09T09:32:33.238Z,16.22
2023-04-09T09:35:05.556Z,16.18
2023-04-09T09:37:33.430Z,16.10
2023-04-09T09:40:00.606Z,15.92
2023-04-09T09:42:27.431Z,15.57
2023-04-09T09:44:54.742Z,15.22
2023-04-09T09:47:22.516Z,14.88
2023-04-09T09:49:50.115Z,14.53
2023-04-09T09:52:23.872Z,14.30
2023-04-09T09:54:52.682Z,14.16
2023-04-09T09:57:23.023Z,14.04
2023-04-09T10:00:01.309Z,14.00
2023-04-09T10:02:35.725Z,14.01
2023-04-09T10:05:05.540Z,14.04
2023-04-09T10:07:32.333Z,14.10
2023-04-09T10:10:00.883Z,14.20
2023-04-09T10:12:28.145Z,14.29
2023-04-09T10:14:55.754Z,14.36
2023-04-09T10:17:23.116Z,14.42
2023-04-09T10:20:22.366Z,14.47
2023-04-09T10:22:51.958Z,14.58
2023-04-09T10:25:19.228Z,14.70
2023-04-09T10:27:48.250Z,14.89
2023-04-09T10:30:35.963Z,15.21
2023-04-09T10:33:09.665Z,15.70
2023-04-09T10:35:36.565Z,16.11
2023-04-09T10:38:03.260Z,16.45
2023-04-09T10:40:30.220Z,16.76
2023-04-09T10:42:58.836Z,16.99
2023-04-09T10:45:38.285Z,17.22
2023-04-09T10:48:04.904Z,17.48
2023-04-09T10:50:32.212Z,17.54
2023-04-09T10:53:00.053Z,17.38
2023-04-09T10:55:30.152Z,17.37
2023-04-09T10:57:58.037Z,17.44
2023-04-09T11:05:14.871Z,17.49
2023-04-09T11:07:54.593Z,17.12
2023-04-09T11:10:22.684Z,16.77
2023-04-09T11:12:50.860Z,16.51
2023-04-09T11:15:20.100Z,16.31
2023-04-09T11:17:48.911Z,16.23
2023-04-09T11:20:21.578Z,16.20
2023-04-09T11:22:54.741Z,16.17
2023-04-09T11:25:26.235Z,16.06
2023-04-09T11:27:55.653Z,15.99
2023-04-09T11:30:23.654Z,15.97
2023-04-09T11:32:51.696Z,15.92
2023-04-09T11:35:21.573Z,15.91
2023-04-09T11:37:52.361Z,16.02
2023-04-09T11:40:22.910Z,16.20
2023-04-09T11:42:53.957Z,16.35
2023-04-09T11:45:29.846Z,16.42
2023-04-09T11:47:58.319Z,16.53
2023-04-09T11:50:26.667Z,16.71
2023-04-09T11:52:54.915Z,16.87
2023-04-09T11:55:24.648Z,16.99
2023-04-09T11:58:01.783Z,17.09
2023-04-09T12:00:29.915Z,17.15
2023-04-09T12:03:03.822Z,17.14
2023-04-09T12:05:34.769Z,17.02
2023-04-09T12:08:05.684Z,16.80
2023-04-09T12:10:38.656Z,16.53
2023-04-09T12:13:10.402Z,16.39
2023-04-09T12:15:42.033Z,16.26
2023-04-09T12:18:14.183Z,16.14
2023-04-09T12:20:44.526Z,16.04
2023-04-09T12:23:13.588Z,16.04
2023-04-09T12:25:43.829Z,16.11
2023-04-09T12:28:15.574Z,16.19
2023-04-09T12:30:44.200Z,16.25
2023-04-09T12:33:12.361Z,16.27
2023-04-09T12:35:40.618Z,16.22
2023-04-09T12:38:08.878Z,16.20
2023-04-09T12:40:37.201Z,16.20
2023-04-09T12:43:06.327Z,16.18
2023-04-09T12:45:35.156Z,16.16
2023-04-09T12:48:04.163Z,16.16
2023-04-09T12:50:32.312Z,16.19
2023-04-09T12:53:00.371Z,16.22
2023-04-09T12:55:28.592Z,16.20
2023-04-09T12:57:56.616Z,16.18
2023-04-09T13:00:24.672Z,16.19
2023-04-09T13:02:52.978Z,16.21
2023-04-09T13:05:21.516Z,16.23
2023-04-09T13:07:49.409Z,16.31
2023-04-09T13:10:17.573Z,16.38
2023-04-09T13:12:45.764Z,16.41
2023-04-09T13:15:14.206Z,16.42
2023-04-09T13:17:42.715Z,16.47
2023-04-09T13:20:10.952Z,16.52
2023-04-09T13:22:39.120Z,16.60
2023-04-09T13:25:07.360Z,16.71
2023-04-09T13:27:35.550Z,16.86
2023-04-09T13:30:03.899Z,16.95
2023-04-09T13:32:31.921Z,17.02
2023-04-09T13:35:00.087Z,17.08
2023-04-09T13:37:28.861Z,17.14
2023-04-09T13:39:56.856Z,17.16
2023-04-09T13:42:25.202Z,17.16
2023-04-09T13:44:53.846Z,17.09
2023-04-09T13:47:23.979Z,17.01
2023-04-09T13:49:53.353Z,17.00
2023-04-09T13:52:21.389Z,16.96
2023-04-09T13:54:49.553Z,16.92
2023-04-09T13:57:18.108Z,16.85
2023-04-09T13:59:46.331Z,16.80
2023-04-09T14:02:14.516Z,16.82
2023-04-09T14:04:42.680Z,16.88
2023-04-09T14:07:10.739Z,16.91
2023-04-09T14:09:38.620Z,16.93
2023-04-09T14:12:06.812Z,16.88
2023-04-09T14:14:34.965Z,16.86
2023-04-09T14:17:03.061Z,16.85
2023-04-09T14:19:31.156Z,16.86
2023-04-09T14:21:59.231Z,16.84
2023-04-09T14:24:27.247Z,16.86
2023-04-09T14:26:55.460Z,16.86
2023-04-09T14:29:23.547Z,16.86
2023-04-09T14:31:53.516Z,16.88
2023-04-09T14:34:23.038Z,16.93
2023-04-09T14:36:51.389Z,17.00
2023-04-09T14:39:19.512Z,17.07
2023-04-09T14:41:47.547Z,17.10
2023-04-09T14:44:15.897Z,17.07
2023-04-09T14:46:44.992Z,16.97
2023-04-09T14:49:13.398Z,16.81
2023-04-09T14:51:41.461Z,16.61
2023-04-09T14:54:09.416Z,16.47
2023-04-09T14:56:37.478Z,16.44
2023-04-09T14:59:05.367Z,16.44
2023-04-09T15:01:33.521Z,16.45
2023-04-09T15:04:01.570Z,16.44
2023-04-09T15:06:29.700Z,16.43
2023-04-09T15:08:57.798Z,16.41
2023-04-09T15:11:25.969Z,16.41
2023-04-09T15:13:54.504Z,16.36
2023-04-09T15:16:27.940Z,16.29
2023-04-09T15:18:58.688Z,16.20
2023-04-09T15:21:27.935Z,16.08
2023-04-09T15:23:58.874Z,15.95
2023-04-09T15:26:27.473Z,15.83
2023-04-09T15:29:04.954Z,15.68
2023-04-09T15:31:33.865Z,15.55
2023-04-09T15:34:04.518Z,15.46
2023-04-09T15:36:32.674Z,15.42
2023-04-09T15:39:02.669Z,15.37
2023-04-09T15:41:32.320Z,15.32
2023-04-09T15:44:00.477Z,15.25
2023-04-09T15:46:29.040Z,15.18
2023-04-09T15:48:57.347Z,15.08
2023-04-09T15:51:25.488Z,14.96
2023-04-09T15:53:53.558Z,14.83
2023-04-09T15:56:21.651Z,14.71
2023-04-09T15:58:49.829Z,14.59
2023-04-09T16:01:19.016Z,14.49
2023-04-09T16:03:51.997Z,14.38
2023-04-09T16:06:21.197Z,14.29
2023-04-09T16:08:49.496Z,14.23
2023-04-09T16:11:18.556Z,14.16
2023-04-09T16:13:46.862Z,14.09
2023-04-09T16:16:14.909Z,14.03
2023-04-09T16:18:42.916Z,13.99
2023-04-09T16:21:11.279Z,13.92
2023-04-09T16:23:39.927Z,13.86
2023-04-09T16:26:08.000Z,13.81
2023-04-09T16:28:39.292Z,13.77
2023-04-09T16:31:07.417Z,13.72
2023-04-09T16:33:35.689Z,13.69
2023-04-09T16:36:03.733Z,13.66
2023-04-09T16:38:31.922Z,13.62
2023-04-09T16:40:59.865Z,13.58
2023-04-09T16:43:27.930Z,13.54
2023-04-09T16:45:56.521Z,13.48
2023-04-09T16:48:24.684Z,13.43
2023-04-09T16:50:52.887Z,13.38
2023-04-09T16:53:21.281Z,13.32
2023-04-09T16:55:50.019Z,13.27
2023-04-09T16:58:18.024Z,13.22
2023-04-09T17:00:47.775Z,13.18
2023-04-09T17:03:20.830Z,13.13
2023-04-09T17:05:49.429Z,13.07
2023-04-09T17:08:18.393Z,13.01
2023-04-09T17:10:46.368Z,12.97
2023-04-09T17:13:14.499Z,12.93
2023-04-09T17:15:43.183Z,12.91
2023-04-09T17:18:11.556Z,12.89
2023-04-09T17:20:39.580Z,12.87
2023-04-09T17:23:07.747Z,12.84
2023-04-09T17:25:35.908Z,12.80
2023-04-09T17:28:04.981Z,12.76
2023-04-09T17:30:33.427Z,12.70
2023-04-09T17:33:01.865Z,12.62
2023-04-09T17:35:30.014Z,12.53
2023-04-09T17:37:58.314Z,12.44
2023-04-09T17:40:27.646Z,12.37
2023-04-09T17:42:56.272Z,12.31
2023-04-09T17:45:24.560Z,12.25
2023-04-09T17:47:52.752Z,12.20
2023-04-09T17:50:21.012Z,12.15
2023-04-09T17:52:49.064Z,12.11
2023-04-09T17:55:18.432Z,12.06
2023-04-09T17:57:46.786Z,11.98
2023-04-09T18:00:15.318Z,11.91
2023-04-09T18:02:54.276Z,11.85
2023-04-09T18:05:23.528Z,11.80
2023-04-09T18:07:52.662Z,11.74
2023-04-09T18:10:23.317Z,11.67
2023-04-09T18:12:51.986Z,11.62
2023-04-09T18:15:21.787Z,11.55
2023-04-09T18:17:49.994Z,11.49
2023-04-09T18:20:18.747Z,11.46
2023-04-09T18:22:47.351Z,11.42
2023-04-09T18:25:15.982Z,11.39
2023-04-09T18:27:44.701Z,11.36
2023-04-09T18:30:13.170Z,11.32
2023-04-09T18:32:41.141Z,11.29
2023-04-09T18:35:10.012Z,11.27
2023-04-09T18:37:38.466Z,11.25
2023-04-09T18:40:09.489Z,11.23
2023-04-09T18:42:37.535Z,11.20
2023-04-09T18:45:07.125Z,11.17
2023-04-09T18:47:37.305Z,11.14
2023-04-09T18:50:06.563Z,11.10
2023-04-09T18:52:38.239Z,11.06
2023-04-09T18:55:06.759Z,11.04
2023-04-09T18:57:34.873Z,11.03
2023-04-09T19:04:40.031Z,10.96
2023-04-09T19:07:08.454Z,10.94
2023-04-09T19:09:37.529Z,10.92
2023-04-09T19:12:07.650Z,10.91
2023-04-09T19:14:36.963Z,10.89
2023-04-09T19:17:05.495Z,10.87
2023-04-09T19:19:34.035Z,10.85
2023-04-09T19:22:02.970Z,10.83
2023-04-09T19:24:32.527Z,10.81
2023-04-09T19:27:04.852Z,10.79
2023-04-09T19:29:33.698Z,10.78
2023-04-09T19:32:06.048Z,10.75
2023-04-09T19:34:34.425Z,10.71
2023-04-09T19:37:03.035Z,10.67
2023-04-09T19:39:31.689Z,10.65
2023-04-09T19:42:00.725Z,10.63
2023-04-09T19:44:28.823Z,10.61
2023-04-09T19:46:57.346Z,10.59
2023-04-09T19:49:28.353Z,10.58
2023-04-09T19:51:56.965Z,10.55
2023-04-09T19:54:25.231Z,10.50
2023-04-09T19:56:57.010Z,10.44
2023-04-09T19:59:36.148Z,10.39
2023-04-09T20:02:04.431Z,10.34
2023-04-09T20:04:33.022Z,10.28
2023-04-09T20:07:01.399Z,10.25
2023-04-09T20:09:29.432Z,10.21
2023-04-09T20:12:04.480Z,10.17
2023-04-09T20:14:32.528Z,10.13
2023-04-09T20:17:00.769Z,10.09
2023-04-09T20:19:29.127Z,10.05
2023-04-09T20:21:57.277Z,10.01
2023-04-09T20:24:26.995Z,9.97
2023-04-09T20:26:56.382Z,9.91
2023-04-09T20:29:24.694Z,9.86
2023-04-09T20:31:52.737Z,9.81
2023-04-09T20:34:26.527Z,9.77
2023-04-09T20:36:56.065Z,9.74
2023-04-09T20:39:26.805Z,9.71
2023-04-09T20:41:56.775Z,9.70
2023-04-09T20:44:24.896Z,9.68
2023-04-09T20:46:52.896Z,9.68
2023-04-09T20:49:21.475Z,9.68
2023-04-09T20:51:49.909Z,9.67
2023-04-09T20:54:18.124Z,9.66
2023-04-09T20:56:46.223Z,9.64
2023-04-09T20:59:15.793Z,9.63
2023-04-09T21:01:44.123Z,9.61
2023-04-09T21:04:12.835Z,9.60
2023-04-09T21:06:41.302Z,9.57
2023-04-09T21:09:09.546Z,9.56
2023-04-09T21:11:37.708Z,9.53
2023-04-09T21:14:07.103Z,9.51
2023-04-09T21:16:35.699Z,9.49
2023-04-09T21:19:07.641Z,9.45
2023-04-09T21:21:37.656Z,9.43
2023-04-09T21:24:05.900Z,9.41
2023-04-09T21:26:49.423Z,9.39
2023-04-09T21:29:21.312Z,9.37
2023-04-09T21:31:49.990Z,9.34
2023-04-09T21:34:18.004Z,9.29
2023-04-09T21:36:47.312Z,9.23
2023-04-09T21:39:15.597Z,9.17
2023-04-09T21:41:44.084Z,9.12
2023-04-09T21:44:12.572Z,9.09
2023-04-09T21:46:41.767Z,9.07
2023-04-09T21:49:09.856Z,9.02
2023-04-09T21:51:38.902Z,8.97
2023-04-09T21:54:08.782Z,8.94
2023-04-09T21:56:37.289Z,8.91
2023-04-09T21:59:06.357Z,8.88
2023-04-09T22:01:35.466Z,8.85
2023-04-09T22:04:04.152Z,8.82
2023-04-09T22:06:32.498Z,8.79
2023-04-09T22:09:01.075Z,8.76
2023-04-09T22:11:29.442Z,8.72
2023-04-09T22:13:57.742Z,8.67
2023-04-09T22:16:26.435Z,8.62
2023-04-09T22:18:55.389Z,8.58
2023-04-09T22:21:24.191Z,8.54
2023-04-09T22:23:52.213Z,8.51
2023-04-09T22:26:20.269Z,8.45
2023-04-09T22:28:48.236Z,8.40
2023-04-09T22:31:17.456Z,8.32
2023-04-09T22:33:45.544Z,8.25
2023-04-09T22:36:13.575Z,8.16
2023-04-09T22:38:41.706Z,8.07
2023-04-09T22:41:10.032Z,8.00
2023-04-09T22:43:38.089Z,7.93
2023-04-09T22:46:06.282Z,7.87
2023-04-09T22:48:40.808Z,7.81
2023-04-09T22:51:13.901Z,7.72
2023-04-09T22:53:42.371Z,7.61
2023-04-09T22:56:10.464Z,7.47
2023-04-09T22:58:38.632Z,7.36
2023-04-09T23:01:07.232Z,7.26
2023-04-09T23:03:35.676Z,7.17
2023-04-09T23:06:04.282Z,7.06
2023-04-09T23:08:32.415Z,6.97
2023-04-09T23:11:01.212Z,6.89
2023-04-09T23:13:29.514Z,6.82
2023-04-09T23:15:58.275Z,6.76
2023-04-09T23:18:26.321Z,6.70
2023-04-09T23:20:54.409Z,6.67
2023-04-09T23:23:23.235Z,6.64
2023-04-09T23:25:51.241Z,6.62
2023-04-09T23:28:19.393Z,6.62
2023-04-09T23:30:47.441Z,6.61
2023-04-09T23:33:15.451Z,6.58
2023-04-09T23:35:43.589Z,6.52
2023-04-09T23:38:11.729Z,6.45
2023-04-09T23:40:39.765Z,6.39
2023-04-09T23:43:09.061Z,6.33
2023-04-09T23:45:37.256Z,6.27
2023-04-09T23:48:06.236Z,6.24
2023-04-09T23:50:37.401Z,6.19
2023-04-09T23:53:05.533Z,6.13
2023-04-09T23:55:38.079Z,6.05
2023-04-09T23:58:06.142Z,5.98
